Time;durP1;ratioP1;P1;durP2;ratioP2;P2;SDS_P1;SDS_P2;PMS_P1;PMS_P2;Temp;Humidity;BMP_temperature;BMP_pressure;BME280_temperature;BME280_humidity;BME280_pressure;Samples;Min_cycle;Max_cycle;Signal;HPM_P1;HPM_P2
2022/09/18 00:01:15;;;;;;;20.65;15.72;;;;;;;12.18;100.00;97861.66;1692220;84;20924;-84
2022/09/18 00:03:42;;;;;;;23.00;16.85;;;;;;;12.17;100.00;97869.70;1688807;84;21054;-84
2022/09/18 00:06:14;;;;;;;22.42;16.90;;;;;;;12.15;100.00;97872.02;1689595;84;21551;-89
2022/09/18 00:08:42;;;;;;;27.65;18.17;;;;;;;12.15;100.00;97871.44;1694445;84;21033;-91
2022/09/18 00:11:11;;;;;;;21.57;16.57;;;;;;;12.14;100.00;97866.30;1691831;84;21447;-90
2022/09/18 00:13:39;;;;;;;23.25;16.97;;;;;;;12.12;100.00;97854.32;1695163;84;21068;-92
2022/09/18 00:16:08;;;;;;;28.73;17.82;;;;;;;12.08;100.00;97843.84;1686249;84;21144;-83
2022/09/18 00:18:35;;;;;;;28.57;20.02;;;;;;;12.07;100.00;97846.95;1688978;84;20968;-81
2022/09/18 00:21:05;;;;;;;23.42;16.87;;;;;;;12.06;100.00;97845.36;1692087;84;22506;-81
2022/09/18 00:23:31;;;;;;;20.57;15.28;;;;;;;12.04;100.00;97835.31;1690543;84;20943;-83
2022/09/18 00:25:58;;;;;;;20.75;16.25;;;;;;;12.04;100.00;97842.19;1686859;84;20929;-86
2022/09/18 00:28:24;;;;;;;20.23;15.00;;;;;;;12.02;100.00;97849.42;1696748;84;21570;-89
2022/09/18 00:30:52;;;;;;;27.35;15.50;;;;;;;12.03;100.00;97845.52;1687006;84;20899;-86
2022/09/18 00:33:19;;;;;;;15.70;13.18;;;;;;;12.03;100.00;97840.59;1695644;84;20960;-84
2022/09/18 00:35:46;;;;;;;16.87;14.47;;;;;;;12.03;100.00;97829.59;1692698;84;20984;-84
2022/09/18 00:38:12;;;;;;;20.23;15.38;;;;;;;12.00;100.00;97821.50;1687690;84;21426;-86
2022/09/18 00:40:38;;;;;;;16.50;13.45;;;;;;;12.00;100.00;97821.50;1691044;84;21146;-83
2022/09/18 00:43:23;;;;;;;21.00;14.58;;;;;;;12.02;100.00;97815.63;1696650;84;20972;-82
2022/09/18 00:45:55;;;;;;;17.07;13.62;;;;;;;12.03;100.00;97811.72;1695618;84;21519;-82
2022/09/18 00:48:25;;;;;;;15.23;12.45;;;;;;;12.04;100.00;97809.98;1696852;84;21012;-82
2022/09/18 00:50:52;;;;;;;17.75;13.43;;;;;;;12.03;100.00;97817.22;1690928;84;21574;-84
2022/09/18 00:53:18;;;;;;;20.80;13.80;;;;;;;12.02;100.00;97812.87;1694141;84;21144;-84
2022/09/18 00:55:45;;;;;;;18.62;13.55;;;;;;;12.02;100.00;97808.17;1691436;84;20943;-82
2022/09/18 00:58:12;;;;;;;19.10;14.05;;;;;;;12.03;100.00;97805.64;1685459;84;21510;-81
2022/09/18 01:00:38;;;;;;;17.82;12.53;;;;;;;12.03;100.00;97790.52;1691563;84;20970;-83
2022/09/18 01:03:05;;;;;;;19.92;11.57;;;;;;;12.02;100.00;97776.55;1685473;84;20931;-84
2022/09/18 01:06:06;;;;;;;15.38;12.37;;;;;;;12.02;100.00;97771.05;1691712;84;22056;-81
2022/09/18 01:08:53;;;;;;;;;;;;;;;12.01;100.00;97772.79;1691688;84;21075;-82
2022/09/18 01:11:35;;;;;;;13.03;9.93;;;;;;;12.01;100.00;97771.41;1694215;83;20086;-82
2022/09/18 01:14:32;;;;;;;12.00;10.20;;;;;;;12.00;100.00;97773.95;1690859;83;21060;-84
2022/09/18 01:17:16;;;;;;;11.35;9.58;;;;;;;12.01;100.00;97777.70;1687435;84;20999;-88
2022/09/18 01:20:19;;;;;;;12.18;10.63;;;;;;;12.01;100.00;97770.83;1696947;84;21954;-85
2022/09/18 01:23:00;;;;;;;13.25;10.45;;;;;;;12.00;100.00;97765.70;1692235;84;20986;-82
2022/09/18 01:26:07;;;;;;;13.75;10.15;;;;;;;12.00;100.00;97767.87;1664179;85;20952;-91
2022/09/18 01:29:00;;;;;;;19.42;12.55;;;;;;;12.01;100.00;97766.70;1687892;84;21014;-86
2022/09/18 01:31:33;;;;;;;15.72;12.65;;;;;;;12.01;100.00;97763.16;1690874;84;21043;-83
2022/09/18 01:34:23;;;;;;;13.48;11.38;;;;;;;11.98;100.00;97755.07;1696909;84;21924;-84
2022/09/18 01:37:10;;;;;;;16.00;11.97;;;;;;;11.99;100.00;97751.73;1690948;83;20959;-90
2022/09/18 01:39:48;;;;;;;11.43;9.98;;;;;;;12.01;100.00;97746.66;1689862;84;21043;-90
2022/09/18 01:42:14;;;;;;;11.55;9.60;;;;;;;12.00;100.00;97734.08;1696270;84;20909;-92
2022/09/18 01:44:42;;;;;;;9.93;8.73;;;;;;;12.00;100.00;97730.75;1696534;83;36472;-88
2022/09/18 01:47:12;;;;;;;12.05;8.98;;;;;;;12.00;100.00;97731.33;1695417;84;21113;-88
2022/09/18 01:49:45;;;;;;;11.48;9.35;;;;;;;12.00;100.00;97728.58;1685995;84;20860;-85
2022/09/18 01:52:22;;;;;;;12.98;8.93;;;;;;;12.00;100.00;97722.49;1692958;84;20935;-83
2022/09/18 01:54:50;;;;;;;11.08;8.35;;;;;;;11.97;100.00;97719.11;1694872;84;21017;-90
2022/09/18 01:57:42;;;;;;;10.68;8.88;;;;;;;11.98;100.00;97726.78;1686038;84;20970;-86
2022/09/18 02:00:10;;;;;;;;;;;;;;;11.96;100.00;97720.27;1695987;84;21809;-89
2022/09/18 02:02:54;;;;;;;8.95;7.42;;;;;;;11.96;100.00;97707.89;1664538;85;20097;-89
2022/09/18 02:05:29;;;;;;;9.53;8.50;;;;;;;11.95;100.00;97699.44;1690339;84;20947;-85
2022/09/18 02:08:19;;;;;;;9.08;8.13;;;;;;;11.97;100.00;97700.44;1693120;84;20980;-84
2022/09/18 02:11:06;;;;;;;11.50;8.00;;;;;;;11.98;100.00;97686.91;1685709;84;21560;-83
2022/09/18 02:13:41;;;;;;;8.55;7.15;;;;;;;12.00;100.00;97679.08;1661837;85;21277;-86
2022/09/18 02:16:34;;;;;;;11.90;7.55;;;;;;;11.99;100.00;97667.87;1674658;84;21023;-88
2022/09/18 02:19:06;;;;;;;9.18;7.85;;;;;;;11.96;100.00;97655.65;1647644;86;21137;-86
2022/09/18 02:21:34;;;;;;;12.20;7.85;;;;;;;11.95;100.00;97645.81;1679280;84;21034;-84
2022/09/18 02:24:07;;;;;;;9.88;8.08;;;;;;;11.95;100.00;97629.31;1651091;84;21091;-86
2022/09/18 02:26:34;;;;;;;9.63;7.40;;;;;;;11.94;100.00;97620.06;1689759;84;21142;-81
2022/09/18 02:29:01;;;;;;;8.25;7.30;;;;;;;11.93;100.00;97626.73;1694797;84;21030;-80
2022/09/18 02:31:29;;;;;;;8.10;6.90;;;;;;;11.90;100.00;97613.14;1677474;83;21008;-89
2022/09/18 02:33:57;;;;;;;8.45;7.05;;;;;;;11.89;100.00;97606.84;1687988;84;21008;-92
2022/09/18 02:36:41;;;;;;;8.95;7.58;;;;;;;11.88;100.00;97605.26;1690802;84;21051;-86
2022/09/18 02:39:46;;;;;;;7.00;6.05;;;;;;;11.87;100.00;97589.14;1685361;84;21230;-83
2022/09/18 02:42:59;;;;;;;8.43;6.97;;;;;;;11.85;100.00;97586.76;1667399;84;20942;-76
2022/09/18 02:45:53;;;;;;;7.37;6.05;;;;;;;11.84;100.00;97589.88;1664023;85;20945;-76
2022/09/18 02:48:31;;;;;;;7.40;6.58;;;;;;;11.82;100.00;97588.88;1642058;86;21056;-77
2022/09/18 02:51:22;;;;;;;10.20;6.28;;;;;;;11.81;100.00;97589.24;1653121;86;21544;-83
2022/09/18 02:54:09;;;;;;;12.23;6.70;;;;;;;11.81;100.00;97583.16;1696002;83;21152;-84
2022/09/18 02:56:47;;;;;;;9.73;7.35;;;;;;;11.81;100.00;97584.53;1677920;84;21000;-84
2022/09/18 02:59:32;;;;;;;7.20;6.50;;;;;;;11.81;100.00;97571.38;1702849;83;21106;-85
2022/09/18 03:01:59;;;;;;;8.93;6.03;;;;;;;11.82;100.00;97569.63;1696894;82;21119;-82
2022/09/18 03:04:27;;;;;;;7.35;6.50;;;;;;;11.82;100.00;97562.76;1703695;82;21061;-78
2022/09/18 03:06:55;;;;;;;9.40;6.33;;;;;;;11.83;100.00;97564.34;1663088;85;21143;-82
2022/09/18 03:09:24;;;;;;;7.67;6.67;;;;;;;11.82;100.00;97565.50;1693589;83;20953;-87
2022/09/18 03:11:50;;;;;;;9.05;5.95;;;;;;;11.82;100.00;97569.63;1665267;85;20986;-88
2022/09/18 03:14:19;;;;;;;6.92;5.80;;;;;;;11.84;100.00;97570.05;1641328;85;20994;-76
2022/09/18 03:16:46;;;;;;;7.35;5.95;;;;;;;11.84;100.00;97568.67;1645068;86;20977;-77
2022/09/18 03:19:13;;;;;;;6.85;6.03;;;;;;;11.84;100.00;97571.42;1665012;86;21157;-84
2022/09/18 03:21:42;;;;;;;5.97;5.25;;;;;;;11.84;100.00;97571.42;1654770;86;20917;-75
2022/09/18 03:24:11;;;;;;;9.08;5.58;;;;;;;11.84;100.00;97559.05;1648670;85;21145;-75
2022/09/18 03:26:41;;;;;;;7.50;5.30;;;;;;;11.86;100.00;97558.68;1640301;86;21079;-81
2022/09/18 03:29:09;;;;;;;5.40;4.87;;;;;;;11.85;100.00;97562.02;1655539;86;21001;-78
2022/09/18 03:31:37;;;;;;;5.75;4.17;;;;;;;11.83;100.00;97557.47;1653035;86;21528;-77
2022/09/18 03:34:05;;;;;;;5.47;4.97;;;;;;;11.83;100.00;97542.34;1663538;86;21493;-75
2022/09/18 03:36:34;;;;;;;5.03;4.53;;;;;;;11.83;100.00;97543.72;1643514;85;20870;-78
2022/09/18 03:39:01;;;;;;;4.70;4.15;;;;;;;11.83;100.00;97533.31;1640201;86;21771;-78
2022/09/18 03:41:28;;;;;;;4.25;3.85;;;;;;;11.82;100.00;97516.02;1650882;86;21482;-74
2022/09/18 03:43:56;;;;;;;4.85;4.35;;;;;;;11.81;100.00;97505.40;1658351;86;21238;-79
2022/09/18 03:46:23;;;;;;;4.62;4.12;;;;;;;11.80;100.00;97496.36;1645897;86;21025;-77
2022/09/18 03:48:52;;;;;;;5.17;4.05;;;;;;;11.78;100.00;97489.06;1655697;85;21042;-77
2022/09/18 03:51:19;;;;;;;5.12;3.83;;;;;;;11.77;100.00;97480.61;1650716;86;21508;-83
2022/09/18 03:53:47;;;;;;;4.80;3.98;;;;;;;11.77;100.00;97468.83;1639793;86;21412;-80
2022/09/18 03:56:33;;;;;;;4.78;3.80;;;;;;;11.76;100.00;97457.01;1596716;88;21870;-81
2022/09/18 03:59:01;;;;;;;4.65;3.98;;;;;;;11.75;100.00;97449.92;1585015;89;21032;-85
2022/09/18 04:01:46;;;;;;;4.35;3.95;;;;;;;11.74;100.00;97433.22;1644182;84;20959;-82
2022/09/18 04:04:28;;;;;;;4.00;3.60;;;;;;;11.73;100.00;97426.73;1697952;84;20969;-79
2022/09/18 04:07:14;;;;;;;4.15;3.52;;;;;;;11.70;100.00;97419.23;1668192;85;20911;-76
2022/09/18 04:09:55;;;;;;;4.42;3.95;;;;;;;11.67;100.00;97418.02;1672800;84;21603;-75
2022/09/18 04:12:22;;;;;;;5.28;3.83;;;;;;;11.65;100.00;97410.73;1650970;86;21066;-75
2022/09/18 04:14:50;;;;;;;3.95;3.55;;;;;;;11.63;100.00;97413.06;1641544;86;21106;-76
2022/09/18 04:17:17;;;;;;;3.70;3.27;;;;;;;11.62;100.00;97416.19;1644383;86;21533;-72
2022/09/18 04:19:44;;;;;;;4.33;3.25;;;;;;;11.63;100.00;97418.56;1690901;84;20996;-75
2022/09/18 04:22:11;;;;;;;4.40;3.15;;;;;;;11.63;100.00;97417.19;1664578;85;21761;-75
2022/09/18 04:24:39;;;;;;;3.27;2.90;;;;;;;11.64;100.00;97416.02;1699742;83;21495;-75
2022/09/18 04:27:06;;;;;;;3.10;2.80;;;;;;;11.65;100.00;97412.11;1669245;85;21457;-74
2022/09/18 04:29:33;;;;;;;3.33;2.80;;;;;;;11.63;100.00;97402.06;1672391;85;20974;-75
2022/09/18 04:32:00;;;;;;;6.15;3.12;;;;;;;11.62;100.00;97379.08;1641569;84;21077;-73
2022/09/18 04:34:28;;;;;;;3.35;3.05;;;;;;;11.61;100.00;97372.01;1659518;86;21677;-72
2022/09/18 04:36:54;;;;;;;3.35;2.90;;;;;;;11.63;100.00;97375.97;1649624;86;21525;-74
2022/09/18 04:39:21;;;;;;;3.22;2.92;;;;;;;11.65;100.00;97375.59;1653256;86;20977;-75
2022/09/18 04:41:49;;;;;;;3.80;2.67;;;;;;;11.64;100.00;97382.25;1655769;86;21501;-75
2022/09/18 04:44:17;;;;;;;3.67;2.50;;;;;;;11.63;100.00;97388.91;1661101;85;21542;-75
2022/09/18 04:46:45;;;;;;;4.28;3.45;;;;;;;11.63;100.00;97391.66;1653665;86;21180;-76
2022/09/18 04:49:13;;;;;;;3.30;2.85;;;;;;;11.62;100.00;97392.24;1661390;86;20877;-75
2022/09/18 04:51:40;;;;;;;2.90;2.70;;;;;;;11.62;100.00;97389.49;1641542;86;20982;-77
2022/09/18 04:54:08;;;;;;;2.60;2.40;;;;;;;11.62;100.00;97392.24;1645877;86;21076;-76
2022/09/18 04:56:36;;;;;;;2.60;2.40;;;;;;;11.62;100.00;97388.12;1647080;86;21100;-76
2022/09/18 04:59:04;;;;;;;3.72;2.50;;;;;;;11.62;100.00;97384.58;1657319;86;21562;-76
2022/09/18 05:01:33;;;;;;;2.92;2.72;;;;;;;11.61;100.00;97383.79;1649200;86;21552;-77
2022/09/18 05:04:02;;;;;;;2.70;2.50;;;;;;;11.62;100.00;97377.13;1659114;86;20925;-76
2022/09/18 05:06:31;;;;;;;5.08;3.20;;;;;;;11.62;100.00;97365.34;1654204;85;21573;-82
2022/09/18 05:08:59;;;;;;;3.27;2.80;;;;;;;11.62;100.00;97370.84;1648218;85;21528;-76
2022/09/18 05:11:26;;;;;;;2.60;2.40;;;;;;;11.63;100.00;97371.05;1645253;86;21137;-80
2022/09/18 05:13:55;;;;;;;3.22;2.70;;;;;;;11.62;100.00;97368.09;1647937;86;22613;-76
2022/09/18 05:16:23;;;;;;;2.87;2.65;;;;;;;11.61;100.00;97375.55;1664707;85;21154;-80
2022/09/18 05:18:52;;;;;;;5.83;4.53;;;;;;;11.58;100.00;97359.22;1663802;85;20925;-88
2022/09/18 05:21:19;;;;;;;3.30;3.00;;;;;;;11.57;100.00;97355.48;1669307;85;20941;-77
2022/09/18 05:23:46;;;;;;;4.28;3.00;;;;;;;11.56;100.00;97351.94;1645430;86;21135;-80
2022/09/18 05:26:15;;;;;;;3.55;2.90;;;;;;;11.55;100.00;97348.22;1649480;86;20944;-72
2022/09/18 05:28:42;;;;;;;4.92;2.65;;;;;;;11.52;100.00;97352.51;1647693;86;21024;-77
2022/09/18 05:31:09;;;;;;;3.05;2.62;;;;;;;11.52;100.00;97349.77;1642229;86;21084;-73
2022/09/18 05:33:40;;;;;;;4.00;3.30;;;;;;;11.51;100.00;97348.77;1672605;83;21035;-74
2022/09/18 05:36:06;;;;;;;3.62;3.27;;;;;;;11.50;100.00;97347.97;1688738;83;21162;-74
2022/09/18 05:38:33;;;;;;;8.03;3.72;;;;;;;11.51;100.00;97354.26;1712770;82;21135;-74
2022/09/18 05:41:00;;;;;;;4.45;4.05;;;;;;;11.51;100.00;97351.51;1717525;82;20975;-75
2022/09/18 05:43:28;;;;;;;6.65;5.78;;;;;;;11.52;100.00;97344.84;1673956;83;20925;-75
2022/09/18 05:45:55;;;;;;;7.10;6.42;;;;;;;11.52;100.00;97340.73;1672845;84;21052;-75
2022/09/18 05:48:24;;;;;;;9.25;7.00;;;;;;;11.52;100.00;97332.48;1675573;84;21836;-74
2022/09/18 05:50:50;;;;;;;7.28;6.58;;;;;;;11.52;100.00;97338.77;1689977;83;20897;-78
2022/09/18 05:53:19;;;;;;;8.98;8.05;;;;;;;11.53;100.00;97333.48;1707356;82;21559;-75
2022/09/18 05:55:47;;;;;;;9.73;8.30;;;;;;;11.53;100.00;97332.69;1729088;82;21006;-74
2022/09/18 05:58:16;;;;;;;10.70;8.53;;;;;;;11.52;100.00;97329.73;1715496;82;21113;-75
2022/09/18 06:00:43;;;;;;;11.60;9.05;;;;;;;11.51;100.00;97326.78;1677548;84;21276;-75
2022/09/18 06:03:13;;;;;;;14.03;11.43;;;;;;;11.51;100.00;97318.54;1675989;84;21060;-74
2022/09/18 06:05:40;;;;;;;13.85;11.90;;;;;;;11.52;100.00;97314.62;1676492;83;20960;-77
2022/09/18 06:08:10;;;;;;;15.88;13.35;;;;;;;11.51;100.00;97313.84;1671133;84;21582;-81
2022/09/18 06:10:39;;;;;;;15.20;12.40;;;;;;;11.51;100.00;97315.79;1676076;84;20917;-76
2022/09/18 06:13:09;;;;;;;16.07;12.90;;;;;;;11.49;100.00;97325.78;1673895;84;21131;-76
2022/09/18 06:15:38;;;;;;;16.10;12.53;;;;;;;11.47;100.00;97325.37;1687235;85;20952;-78
2022/09/18 06:18:07;;;;;;;17.57;14.28;;;;;;;11.47;100.00;97324.58;1687380;85;21499;-75
2022/09/18 06:20:34;;;;;;;18.52;15.75;;;;;;;11.46;100.00;97322.41;1663424;85;21078;-76
2022/09/18 06:23:02;;;;;;;20.40;16.97;;;;;;;11.47;100.00;97312.21;1717671;82;21058;-74
2022/09/18 06:25:31;;;;;;;16.85;14.58;;;;;;;11.52;100.00;97311.88;1702655;83;21353;-82
2022/09/18 06:27:59;;;;;;;21.23;17.40;;;;;;;11.53;100.00;97313.46;1726561;82;20969;-81
2022/09/18 06:30:30;;;;;;;22.07;18.00;;;;;;;11.54;100.00;97304.84;1718622;82;21435;-76
2022/09/18 06:33:02;;;;;;;24.43;19.13;;;;;;;11.54;100.00;97304.84;1729014;82;21018;-76
2022/09/18 06:35:28;;;;;;;22.60;19.45;;;;;;;11.56;100.00;97314.05;1723646;81;20997;-73
2022/09/18 06:37:55;;;;;;;23.42;19.27;;;;;;;11.57;100.00;97307.39;1728633;82;21129;-73
2022/09/18 06:40:27;;;;;;;28.00;19.57;;;;;;;11.60;100.00;97309.38;1699692;82;28299;-76
2022/09/18 06:42:56;;;;;;;23.52;18.77;;;;;;;11.65;100.00;97310.42;1722227;82;20947;-73
2022/09/18 06:45:28;;;;;;;17.50;14.68;;;;;;;11.70;100.00;97308.70;1660731;85;21111;-80
2022/09/18 06:48:00;;;;;;;15.93;11.25;;;;;;;11.75;100.00;97299.33;1669247;85;20977;-82
2022/09/18 06:50:29;;;;;;;16.25;12.68;;;;;;;11.77;100.00;97295.66;1627238;85;21166;-81
2022/09/18 06:53:04;;;;;;;17.00;12.75;;;;;;;11.79;100.00;97278.98;1675376;84;21039;-81
2022/09/18 06:55:32;;;;;;;14.25;11.97;;;;;;;11.81;100.00;97289.02;1667479;84;21547;-74
2022/09/18 06:57:59;;;;;;;14.25;11.28;;;;;;;11.88;100.00;97287.72;1666902;84;21048;-73
2022/09/18 07:00:27;;;;;;;10.48;9.38;;;;;;;11.92;100.00;97275.38;1661306;85;21075;-72
2022/09/18 07:02:59;;;;;;;11.35;9.40;;;;;;;11.96;100.00;97267.16;1702310;82;21722;-73
2022/09/18 07:05:44;;;;;;;10.55;8.80;;;;;;;11.98;100.00;97259.33;1707547;81;21612;-72
2022/09/18 07:08:14;;;;;;;9.93;8.85;;;;;;;12.02;100.00;97265.64;1703802;82;20971;-75
2022/09/18 07:10:41;;;;;;;9.20;7.95;;;;;;;12.06;100.00;97276.09;1708476;81;20896;-72
2022/09/18 07:13:10;;;;;;;9.10;7.08;;;;;;;12.11;100.00;97283.98;1692580;84;21515;-72
2022/09/18 07:15:41;;;;;;;8.03;6.22;;;;;;;12.14;100.00;97273.58;1683994;84;21739;-73
2022/09/18 07:18:09;;;;;;;8.25;6.65;;;;;;;12.17;100.00;97274.98;1669614;85;20962;-75
2022/09/18 07:20:37;;;;;;;6.65;5.42;;;;;;;12.20;100.00;97266.55;1648421;84;21658;-74
2022/09/18 07:23:03;;;;;;;5.37;4.87;;;;;;;12.27;100.00;97276.82;1696799;83;20960;-74
2022/09/18 07:25:39;;;;;;;6.45;4.83;;;;;;;12.28;100.00;97270.94;1702694;83;21076;-73
2022/09/18 07:28:07;;;;;;;6.05;4.87;;;;;;;12.28;100.00;97259.94;1703334;83;21103;-74
2022/09/18 07:30:37;;;;;;;7.58;4.25;;;;;;;12.31;100.00;97251.50;1700335;83;21072;-74
2022/09/18 07:33:07;;;;;;;4.33;3.87;;;;;;;12.33;100.00;97249.95;1667528;83;21040;-74
2022/09/18 07:35:36;;;;;;;4.37;3.87;;;;;;;12.37;100.00;97254.09;1677832;84;20915;-73
2022/09/18 07:38:05;;;;;;;4.10;3.70;;;;;;;12.43;100.00;97257.48;1704198;82;21453;-75
2022/09/18 07:40:33;;;;;;;4.83;3.92;;;;;;;12.47;100.00;97254.77;1646898;85;21352;-73
2022/09/18 07:43:09;;;;;;;3.42;2.98;;;;;;;12.49;100.00;97255.17;1659575;85;21412;-73
2022/09/18 07:45:37;;;;;;;3.95;3.10;;;;;;;12.51;100.00;97253.61;1643834;86;21018;-74
2022/09/18 07:48:06;;;;;;;3.87;2.85;;;;;;;12.52;100.00;97250.27;1667227;84;21429;-73
2022/09/18 07:50:35;;;;;;;3.25;2.95;;;;;;;12.53;100.00;97254.02;1666446;85;20925;-74
2022/09/18 07:53:04;;;;;;;2.70;2.47;;;;;;;12.55;100.00;97257.76;1687518;83;21421;-74
2022/09/18 07:55:37;;;;;;;2.98;2.10;;;;;;;12.55;100.00;97258.55;1671986;84;21596;-76
2022/09/18 07:58:08;;;;;;;2.37;2.10;;;;;;;12.56;100.00;97254.63;1689508;84;20957;-74
2022/09/18 08:00:47;;;;;;;1.92;1.82;;;;;;;12.56;100.00;97248.33;1658442;84;21115;-74
2022/09/18 08:03:17;;;;;;;2.20;2.00;;;;;;;12.55;100.00;97242.03;1663306;84;21561;-73
2022/09/18 08:05:51;;;;;;;3.08;2.00;;;;;;;12.59;100.00;97235.18;1686411;84;21170;-74
2022/09/18 08:08:24;;;;;;;2.02;1.80;;;;;;;12.62;100.00;97226.73;1638910;84;21072;-76
2022/09/18 08:10:58;;;;;;;2.17;1.98;;;;;;;12.65;100.00;97221.84;1662963;84;20943;-75
2022/09/18 08:13:36;;;;;;;1.57;1.47;;;;;;;12.70;100.00;97215.97;1688134;83;21578;-75
2022/09/18 08:16:16;;;;;;;3.45;2.17;;;;;;;12.76;100.00;97210.27;1686987;83;21576;-74
2022/09/18 08:19:03;;;;;;;2.42;1.87;;;;;;;12.82;100.00;97213.64;1674400;84;21186;-75
2022/09/18 08:21:39;;;;;;;3.22;1.52;;;;;;;12.86;100.00;97209.53;1662986;84;21060;-77
2022/09/18 08:24:10;;;;;;;2.27;1.30;;;;;;;12.90;100.00;97204.23;1691880;83;20944;-74
2022/09/18 08:26:38;;;;;;;3.55;1.57;;;;;;;12.95;100.00;97197.56;1684926;83;21096;-74
2022/09/18 08:29:17;;;;;;;2.22;1.67;;;;;;;13.00;100.00;97188.93;1658124;83;20986;-74
2022/09/18 08:31:48;;;;;;;3.50;1.55;;;;;;;13.08;100.00;97187.78;1679297;83;21153;-74
2022/09/18 08:34:19;;;;;;;2.12;1.75;;;;;;;13.14;100.00;97186.22;1689098;83;21260;-74
2022/09/18 08:36:48;;;;;;;2.65;1.40;;;;;;;13.19;100.00;97172.69;1661251;83;21114;-80
2022/09/18 08:39:23;;;;;;;1.37;1.27;;;;;;;13.23;100.00;97169.36;1620881;83;21079;-76
2022/09/18 08:42:21;;;;;;;0.80;0.80;;;;;;;13.26;100.00;97165.81;1672090;84;21111;-77
2022/09/18 08:45:16;;;;;;;1.50;1.40;;;;;;;13.30;100.00;97156.15;1696728;83;21542;-74
2022/09/18 08:47:52;;;;;;;4.15;3.85;;;;;;;13.34;100.00;97150.06;1685650;83;21478;-74
2022/09/18 08:50:33;;;;;;;1.77;1.67;;;;;;;13.38;100.00;97146.72;1643834;85;21009;-73
2022/09/18 08:53:32;;;;;;;1.80;1.47;;;;;;;13.43;100.00;97147.12;1669434;84;21108;-73
2022/09/18 08:56:12;;;;;;;1.52;1.42;;;;;;;13.51;100.00;97139.05;1595889;85;21136;-74
2022/09/18 08:59:02;;;;;;;0.90;0.90;;;;;;;13.58;100.00;97134.14;1664984;85;21152;-74
2022/09/18 09:01:43;;;;;;;0.80;0.80;;;;;;;13.64;100.00;97128.43;1666281;85;21042;-75
2022/09/18 09:04:27;;;;;;;1.10;1.00;;;;;;;13.63;100.00;97133.74;1658457;85;21052;-73
2022/09/18 09:07:27;;;;;;;1.65;1.02;;;;;;;13.63;100.00;97124.69;1642481;86;21065;-76
2022/09/18 09:09:59;;;;;;;0.88;0.80;;;;;;;13.61;100.00;97122.91;1667123;85;21181;-72
2022/09/18 09:12:59;;;;;;;1.35;1.05;;;;;;;13.56;100.00;97126.85;1674999;83;20944;-73
2022/09/18 09:16:00;;;;;;;2.55;1.00;;;;;;;13.58;100.00;97116.81;1707806;82;21634;-72
2022/09/18 09:18:53;;;;;;;1.90;1.70;;;;;;;13.61;100.00;97114.05;1594604;88;21064;-73
2022/09/18 09:21:53;;;;;;;1.62;0.80;;;;;;;13.66;100.00;97109.52;1637320;85;21096;-71
2022/09/18 09:24:41;;;;;;;1.52;1.20;;;;;;;13.65;100.00;97113.46;1645341;85;21105;-71
2022/09/18 09:27:36;;;;;;;1.47;1.05;;;;;;;13.59;100.00;97120.55;1684778;84;21139;-72
2022/09/18 09:30:18;;;;;;;2.17;0.95;;;;;;;13.53;100.00;97116.61;1667140;85;21017;-72
2022/09/18 09:33:19;;;;;;;1.12;1.02;;;;;;;13.50;100.00;97120.16;1694243;83;21064;-73
2022/09/18 09:36:12;;;;;;;2.08;1.37;;;;;;;13.48;100.00;97125.27;1590347;89;21152;-72
2022/09/18 09:39:14;;;;;;;4.12;1.20;;;;;;;13.41;100.00;97121.13;1607021;89;21097;-72
2022/09/18 09:41:54;;;;;;;2.02;1.35;;;;;;;13.38;100.00;97128.22;1614707;85;21132;-74
2022/09/18 09:44:38;;;;;;;4.35;1.27;;;;;;;13.37;100.00;97124.47;1620414;87;21085;-73
2022/09/18 09:47:46;;;;;;;1.75;1.35;;;;;;;13.37;100.00;97118.96;1663215;83;21043;-73
2022/09/18 09:50:44;;;;;;;2.12;1.72;;;;;;;13.38;100.00;97127.43;1670820;85;21109;-73
2022/09/18 09:53:14;;;;;;;1.95;1.47;;;;;;;13.38;100.00;97121.92;1638607;84;21084;-73
2022/09/18 09:56:16;;;;;;;2.70;2.12;;;;;;;13.38;100.00;97116.41;1666854;85;21103;-73
2022/09/18 09:58:50;;;;;;;3.47;2.17;;;;;;;13.35;100.00;97130.38;1643113;85;21070;-73
2022/09/18 10:01:32;;;;;;;3.37;2.35;;;;;;;13.36;100.00;97124.28;1661609;85;21067;-73
2022/09/18 10:04:39;;;;;;;2.50;1.85;;;;;;;13.36;100.00;97127.03;1665388;83;21067;-72
2022/09/18 10:07:29;;;;;;;3.60;2.20;;;;;;;13.38;100.00;97120.54;1662146;84;21107;-74
2022/09/18 10:10:26;;;;;;;3.40;2.40;;;;;;;13.41;100.00;97115.62;1634797;86;21553;-73
2022/09/18 10:13:00;;;;;;;3.98;2.60;;;;;;;13.44;100.00;97108.73;1669681;84;21217;-81
2022/09/18 10:15:38;;;;;;;3.85;3.10;;;;;;;13.45;100.00;97107.55;1666087;84;21060;-78
2022/09/18 10:18:21;;;;;;;3.92;3.12;;;;;;;13.48;100.00;97117.00;1672049;84;21174;-76
2022/09/18 10:20:52;;;;;;;4.83;2.98;;;;;;;13.49;100.00;97111.69;1636712;85;21100;-76
2022/09/18 10:23:33;;;;;;;4.17;3.50;;;;;;;13.52;100.00;97109.52;1691714;82;21816;-79
2022/09/18 10:26:00;;;;;;;4.30;3.27;;;;;;;13.56;100.00;97113.06;1671080;83;21600;-73
2022/09/18 10:28:28;;;;;;;6.90;3.30;;;;;;;13.58;100.00;97112.09;1670185;84;21065;-72
2022/09/18 10:31:09;;;;;;;6.72;3.85;;;;;;;13.60;100.00;97106.97;1664004;85;21056;-74
2022/09/18 10:33:46;;;;;;;4.97;3.72;;;;;;;13.61;100.00;97106.38;1645609;85;21147;-73
2022/09/18 10:36:34;;;;;;;6.25;4.60;;;;;;;13.63;100.00;97108.94;1639879;86;21521;-77
2022/09/18 10:39:30;;;;;;;5.25;4.12;;;;;;;13.69;100.00;97107.95;1640478;86;21107;-77
2022/09/18 10:42:04;;;;;;;6.33;4.33;;;;;;;13.73;100.00;97095.73;1637455;86;20964;-75
2022/09/18 10:44:36;;;;;;;4.37;3.30;;;;;;;13.89;100.00;97089.78;1626309;86;21024;-74
2022/09/18 10:47:12;;;;;;;5.35;3.80;;;;;;;14.00;100.00;97092.52;1687700;83;21190;-75
2022/09/18 10:50:10;;;;;;;3.75;3.33;;;;;;;14.08;100.00;97084.42;1674572;83;21142;-76
2022/09/18 10:52:42;;;;;;;3.33;3.02;;;;;;;14.15;100.00;97070.61;1691690;82;21095;-77
2022/09/18 10:55:25;;;;;;;3.80;3.12;;;;;;;14.26;100.00;97071.95;1678935;83;21078;-77
2022/09/18 10:58:05;;;;;;;;;;;;;;;14.31;100.00;97061.89;1692975;83;20972;-73
2022/09/18 11:00:38;;;;;;;4.05;3.12;;;;;;;14.32;100.00;97056.56;1693129;83;20172;-77
2022/09/18 11:03:23;;;;;;;5.60;4.03;;;;;;;14.29;100.00;97051.25;1678545;84;21158;-75
2022/09/18 11:06:03;;;;;;;4.87;4.20;;;;;;;14.33;100.00;97062.27;1688767;83;21571;-74
2022/09/18 11:08:34;;;;;;;4.62;3.92;;;;;;;14.34;100.00;97049.45;1686015;83;21108;-74
2022/09/18 11:11:07;;;;;;;4.80;3.65;;;;;;;14.36;100.00;97052.59;1655130;84;21517;-72
2022/09/18 11:13:58;;;;;;;6.22;3.90;;;;;;;14.40;100.00;97035.43;1666906;85;21029;-72
2022/09/18 11:16:38;;;;;;;5.08;4.47;;;;;;;14.48;100.00;97027.91;1661197;86;21111;-75
2022/09/18 11:19:27;;;;;;;5.50;4.65;;;;;;;14.62;100.00;97028.42;1628857;86;21048;-72
2022/09/18 11:22:00;;;;;;;10.50;7.22;;;;;;;14.88;100.00;97013.28;1661214;86;21072;-74
2022/09/18 11:24:34;;;;;;;12.45;7.25;;;;;;;15.30;100.00;96999.70;1642412;85;21068;-79
2022/09/18 11:27:21;;;;;;;18.32;9.00;;;;;;;15.55;100.00;96996.13;1632648;86;21132;-72
2022/09/18 11:29:48;;;;;;;14.47;9.20;;;;;;;15.69;100.00;97005.66;1646429;85;21775;-73
2022/09/18 11:32:34;;;;;;;22.77;10.68;;;;;;;15.82;100.00;96997.03;1639147;86;21160;-73
2022/09/18 11:35:03;;;;;;;11.28;6.75;;;;;;;15.96;100.00;96995.30;1594381;86;21047;-73
2022/09/18 11:37:39;;;;;;;18.32;9.03;;;;;;;16.33;100.00;96992.45;1640009;85;21293;-73
2022/09/18 11:40:28;;;;;;;13.78;7.67;;;;;;;16.57;100.00;96991.16;1643674;85;21555;-77
2022/09/18 11:42:55;;;;;;;38.38;20.60;;;;;;;16.66;100.00;96986.70;1650911;85;21279;-77
2022/09/18 11:45:46;;;;;;;10.98;9.38;;;;;;;16.83;100.00;96980.69;1643475;85;21092;-82
2022/09/18 11:48:47;;;;;;;9.08;7.28;;;;;;;16.90;100.00;96972.87;1625114;86;21538;-72
2022/09/18 11:51:25;;;;;;;6.65;6.03;;;;;;;16.91;100.00;96966.13;1703285;83;21079;-72
2022/09/18 11:53:54;;;;;;;7.00;6.30;;;;;;;16.92;100.00;96965.70;1680548;84;21084;-74
2022/09/18 11:56:47;;;;;;;10.45;5.85;;;;;;;16.91;100.00;96969.68;1692775;83;21137;-75
2022/09/18 11:59:41;;;;;;;6.47;5.87;;;;;;;16.90;100.00;96968.11;1668754;84;21070;-74